sensor_id;sensor_type;location;lat;lon;timestamp;temperature;humidity
37322;DHT22;23697;48.684;9.032;2023-05-18T04:51:47;4.50;86.80
37322;DHT22;23697;48.684;9.032;2023-05-18T04:54:22;4.60;86.70
37322;DHT22;23697;48.684;9.032;2023-05-18T04:56:51;4.60;86.50
37322;DHT22;23697;48.684;9.032;2023-05-18T04:59:21;4.80;86.30
37322;DHT22;23697;48.684;9.032;2023-05-18T05:01:50;4.90;86.10
37322;DHT22;23697;48.684;9.032;2023-05-18T05:04:17;5.00;85.80
37322;DHT22;23697;48.684;9.032;2023-05-18T05:06:49;5.10;85.80
37322;DHT22;23697;48.684;9.032;2023-05-18T05:09:16;5.10;85.60
37322;DHT22;23697;48.684;9.032;2023-05-18T05:11:43;5.20;85.50
37322;DHT22;23697;48.684;9.032;2023-05-18T05:14:09;5.20;85.40
37322;DHT22;23697;48.684;9.032;2023-05-18T05:16:37;5.30;85.40
37322;DHT22;23697;48.684;9.032;2023-05-18T05:19:04;5.30;85.20
37322;DHT22;23697;48.684;9.032;2023-05-18T05:21:31;5.40;85.10
37322;DHT22;23697;48.684;9.032;2023-05-18T05:23:59;5.60;84.90
37322;DHT22;23697;48.684;9.032;2023-05-18T05:26:29;5.60;84.30
37322;DHT22;23697;48.684;9.032;2023-05-18T05:28:55;5.70;84.10
37322;DHT22;23697;48.684;9.032;2023-05-18T05:31:22;5.80;84.00
37322;DHT22;23697;48.684;9.032;2023-05-18T05:33:49;5.80;83.70
37322;DHT22;23697;48.684;9.032;2023-05-18T05:36:15;5.90;83.60
37322;DHT22;23697;48.684;9.032;2023-05-18T05:38:42;6.00;83.20
37322;DHT22;23697;48.684;9.032;2023-05-18T05:41:10;6.10;82.60
37322;DHT22;23697;48.684;9.032;2023-05-18T05:43:40;6.20;82.20
37322;DHT22;23697;48.684;9.032;2023-05-18T05:46:07;6.20;81.80
37322;DHT22;23697;48.684;9.032;2023-05-18T05:48:34;6.20;81.70
37322;DHT22;23697;48.684;9.032;2023-05-18T05:51:00;6.30;81.80
37322;DHT22;23697;48.684;9.032;2023-05-18T05:53:27;6.40;81.50
37322;DHT22;23697;48.684;9.032;2023-05-18T05:55:54;6.30;81.10
37322;DHT22;23697;48.684;9.032;2023-05-18T05:58:22;6.40;81.10
37322;DHT22;23697;48.684;9.032;2023-05-18T06:00:49;6.50;80.90
37322;DHT22;23697;48.684;9.032;2023-05-18T06:03:15;6.60;81.10
37322;DHT22;23697;48.684;9.032;2023-05-18T06:05:42;6.70;80.80
37322;DHT22;23697;48.684;9.032;2023-05-18T06:08:09;6.80;80.40
37322;DHT22;23697;48.684;9.032;2023-05-18T06:10:36;7.00;79.60
37322;DHT22;23697;48.684;9.032;2023-05-18T06:13:03;7.10;79.00
37322;DHT22;23697;48.684;9.032;2023-05-18T06:15:31;7.20;77.90
37322;DHT22;23697;48.684;9.032;2023-05-18T06:17:58;7.30;77.60
37322;DHT22;23697;48.684;9.032;2023-05-18T06:20:25;7.50;77.30
37322;DHT22;23697;48.684;9.032;2023-05-18T06:22:51;7.60;76.70
37322;DHT22;23697;48.684;9.032;2023-05-18T06:25:18;7.60;75.80
37322;DHT22;23697;48.684;9.032;2023-05-18T06:27:45;7.80;76.20
37322;DHT22;23697;48.684;9.032;2023-05-18T06:30:13;8.00;75.50
37322;DHT22;23697;48.684;9.032;2023-05-18T06:32:41;8.10;73.60
37322;DHT22;23697;48.684;9.032;2023-05-18T06:35:08;8.10;73.90
37322;DHT22;23697;48.684;9.032;2023-05-18T06:37:34;8.20;74.30
37322;DHT22;23697;48.684;9.032;2023-05-18T06:40:01;8.40;74.00
37322;DHT22;23697;48.684;9.032;2023-05-18T06:42:31;8.60;74.10
37322;DHT22;23697;48.684;9.032;2023-05-18T06:44:58;8.60;72.70
37322;DHT22;23697;48.684;9.032;2023-05-18T06:47:25;8.80;72.50
37322;DHT22;23697;48.684;9.032;2023-05-18T06:49:53;8.80;71.40
37322;DHT22;23697;48.684;9.032;2023-05-18T06:52:21;8.90;71.90
37322;DHT22;23697;48.684;9.032;2023-05-18T06:54:48;9.10;71.40
37322;DHT22;23697;48.684;9.032;2023-05-18T06:57:14;9.10;70.80
37322;DHT22;23697;48.684;9.032;2023-05-18T06:59:41;9.20;71.60
37322;DHT22;23697;48.684;9.032;2023-05-18T07:02:08;9.30;70.40
37322;DHT22;23697;48.684;9.032;2023-05-18T07:04:39;9.30;70.30
37322;DHT22;23697;48.684;9.032;2023-05-18T07:10:05;9.50;70.00
37322;DHT22;23697;48.684;9.032;2023-05-18T07:12:32;9.70;70.70
37322;DHT22;23697;48.684;9.032;2023-05-18T07:14:59;9.80;70.40
37322;DHT22;23697;48.684;9.032;2023-05-18T07:17:26;9.90;68.90
37322;DHT22;23697;48.684;9.032;2023-05-18T07:22:46;10.10;68.80
37322;DHT22;23697;48.684;9.032;2023-05-18T07:37:48;10.90;67.00
37322;DHT22;23697;48.684;9.032;2023-05-18T07:40:23;11.10;66.50
37322;DHT22;23697;48.684;9.032;2023-05-18T07:43:19;11.20;66.30
37322;DHT22;23697;48.684;9.032;2023-05-18T07:45:59;11.30;64.60
37322;DHT22;23697;48.684;9.032;2023-05-18T07:48:30;11.30;65.20
37322;DHT22;23697;48.684;9.032;2023-05-18T07:57:33;11.40;64.50
37322;DHT22;23697;48.684;9.032;2023-05-18T08:00:02;11.60;64.90
37322;DHT22;23697;48.684;9.032;2023-05-18T08:05:51;11.90;64.40
37322;DHT22;23697;48.684;9.032;2023-05-18T08:08:32;12.10;63.90
37322;DHT22;23697;48.684;9.032;2023-05-18T08:11:02;12.40;64.20
37322;DHT22;23697;48.684;9.032;2023-05-18T08:13:45;12.60;64.20
37322;DHT22;23697;48.684;9.032;2023-05-18T08:21:43;12.40;60.80
37322;DHT22;23697;48.684;9.032;2023-05-18T08:24:23;12.60;63.00
37322;DHT22;23697;48.684;9.032;2023-05-18T08:26:51;12.60;60.60
37322;DHT22;23697;48.684;9.032;2023-05-18T08:29:28;12.70;60.80
37322;DHT22;23697;48.684;9.032;2023-05-18T08:32:08;12.60;62.20
37322;DHT22;23697;48.684;9.032;2023-05-18T08:34:49;12.80;62.90
37322;DHT22;23697;48.684;9.032;2023-05-18T08:37:36;13.30;61.00
37322;DHT22;23697;48.684;9.032;2023-05-18T08:40:06;13.60;58.90
37322;DHT22;23697;48.684;9.032;2023-05-18T08:44:21;14.10;59.40
37322;DHT22;23697;48.684;9.032;2023-05-18T08:45:44;14.10;57.70
37322;DHT22;23697;48.684;9.032;2023-05-18T08:48:32;14.00;58.40
37322;DHT22;23697;48.684;9.032;2023-05-18T08:51:18;14.30;58.10
37322;DHT22;23697;48.684;9.032;2023-05-18T08:53:51;14.60;56.80
37322;DHT22;23697;48.684;9.032;2023-05-18T08:56:22;14.30;55.00
37322;DHT22;23697;48.684;9.032;2023-05-18T08:58:53;14.50;57.30
37322;DHT22;23697;48.684;9.032;2023-05-18T09:01:40;14.60;56.90
37322;DHT22;23697;48.684;9.032;2023-05-18T09:04:12;14.60;55.90
37322;DHT22;23697;48.684;9.032;2023-05-18T09:06:55;14.70;58.80
37322;DHT22;23697;48.684;9.032;2023-05-18T09:09:35;14.80;55.90
37322;DHT22;23697;48.684;9.032;2023-05-18T09:12:03;15.00;54.50
37322;DHT22;23697;48.684;9.032;2023-05-18T09:15:11;14.80;54.00
37322;DHT22;23697;48.684;9.032;2023-05-18T09:17:43;14.80;55.80
37322;DHT22;23697;48.684;9.032;2023-05-18T09:20:10;14.90;55.00
37322;DHT22;23697;48.684;9.032;2023-05-18T09:22:40;15.20;55.20
37322;DHT22;23697;48.684;9.032;2023-05-18T09:25:19;15.20;52.70
37322;DHT22;23697;48.684;9.032;2023-05-18T09:27:52;15.10;52.90
37322;DHT22;23697;48.684;9.032;2023-05-18T09:30:50;15.00;54.20
37322;DHT22;23697;48.684;9.032;2023-05-18T09:33:26;15.00;52.40
37322;DHT22;23697;48.684;9.032;2023-05-18T09:36:24;14.90;53.20
37322;DHT22;23697;48.684;9.032;2023-05-18T09:41:57;15.00;51.70
37322;DHT22;23697;48.684;9.032;2023-05-18T09:44:29;15.20;52.90
37322;DHT22;23697;48.684;9.032;2023-05-18T09:46:57;15.50;54.40
37322;DHT22;23697;48.684;9.032;2023-05-18T09:49:41;16.00;54.50
37322;DHT22;23697;48.684;9.032;2023-05-18T09:52:19;16.40;52.90
37322;DHT22;23697;48.684;9.032;2023-05-18T09:54:51;16.60;51.60
37322;DHT22;23697;48.684;9.032;2023-05-18T10:03:53;16.20;47.30
37322;DHT22;23697;48.684;9.032;2023-05-18T10:59:14;17.40;46.30
37322;DHT22;23697;48.684;9.032;2023-05-18T11:20:23;16.90;48.00
37322;DHT22;23697;48.684;9.032;2023-05-18T11:29:34;17.60;44.10
37322;DHT22;23697;48.684;9.032;2023-05-18T11:32:36;17.30;44.50
37322;DHT22;23697;48.684;9.032;2023-05-18T11:38:17;17.60;44.20
37322;DHT22;23697;48.684;9.032;2023-05-18T11:40:44;17.90;43.00
37322;DHT22;23697;48.684;9.032;2023-05-18T11:43:21;18.10;45.50
37322;DHT22;23697;48.684;9.032;2023-05-18T11:45:51;17.80;42.90
37322;DHT22;23697;48.684;9.032;2023-05-18T11:48:22;17.80;42.30
37322;DHT22;23697;48.684;9.032;2023-05-18T11:50:51;17.80;42.80
37322;DHT22;23697;48.684;9.032;2023-05-18T11:53:22;17.10;43.30
37322;DHT22;23697;48.684;9.032;2023-05-18T11:55:50;16.90;43.00
37322;DHT22;23697;48.684;9.032;2023-05-18T11:58:18;17.10;45.10
37322;DHT22;23697;48.684;9.032;2023-05-18T12:00:47;17.60;44.00
37322;DHT22;23697;48.684;9.032;2023-05-18T12:03:17;17.60;45.60
37322;DHT22;23697;48.684;9.032;2023-05-18T12:05:48;17.50;42.90
37322;DHT22;23697;48.684;9.032;2023-05-18T12:08:18;17.70;43.00
37322;DHT22;23697;48.684;9.032;2023-05-18T12:10:48;18.00;43.70
37322;DHT22;23697;48.684;9.032;2023-05-18T12:13:16;18.40;43.10
37322;DHT22;23697;48.684;9.032;2023-05-18T12:18:52;18.80;41.30
37322;DHT22;23697;48.684;9.032;2023-05-18T12:21:35;18.50;40.80
37322;DHT22;23697;48.684;9.032;2023-05-18T12:24:02;18.20;41.90
37322;DHT22;23697;48.684;9.032;2023-05-18T12:32:42;18.70;42.40
37322;DHT22;23697;48.684;9.032;2023-05-18T12:35:46;18.60;41.50
37322;DHT22;23697;48.684;9.032;2023-05-18T12:59:25;18.20;43.60
37322;DHT22;23697;48.684;9.032;2023-05-18T13:01:52;17.90;41.70
37322;DHT22;23697;48.684;9.032;2023-05-18T13:04:19;17.40;42.20
37322;DHT22;23697;48.684;9.032;2023-05-18T13:06:46;17.40;41.80
37322;DHT22;23697;48.684;9.032;2023-05-18T13:09:13;17.60;43.00
37322;DHT22;23697;48.684;9.032;2023-05-18T13:11:40;18.00;41.40
37322;DHT22;23697;48.684;9.032;2023-05-18T13:14:11;18.20;41.90
37322;DHT22;23697;48.684;9.032;2023-05-18T13:16:43;18.60;41.90
37322;DHT22;23697;48.684;9.032;2023-05-18T13:19:10;18.90;40.30
37322;DHT22;23697;48.684;9.032;2023-05-18T13:21:41;19.00;41.30
37322;DHT22;23697;48.684;9.032;2023-05-18T13:24:08;19.40;40.20
37322;DHT22;23697;48.684;9.032;2023-05-18T13:26:36;19.20;40.20
37322;DHT22;23697;48.684;9.032;2023-05-18T13:29:03;18.70;39.50
37322;DHT22;23697;48.684;9.032;2023-05-18T13:31:31;18.00;40.90
37322;DHT22;23697;48.684;9.032;2023-05-18T13:34:00;17.80;42.20
37322;DHT22;23697;48.684;9.032;2023-05-18T13:36:33;18.10;43.20
37322;DHT22;23697;48.684;9.032;2023-05-18T13:39:16;18.20;41.00
37322;DHT22;23697;48.684;9.032;2023-05-18T13:41:46;18.50;42.00
37322;DHT22;23697;48.684;9.032;2023-05-18T13:44:30;18.70;40.50
37322;DHT22;23697;48.684;9.032;2023-05-18T13:53:28;18.80;40.30
37322;DHT22;23697;48.684;9.032;2023-05-18T13:55:55;18.80;42.00
37322;DHT22;23697;48.684;9.032;2023-05-18T13:58:23;18.40;40.20
37322;DHT22;23697;48.684;9.032;2023-05-18T14:01:12;18.10;43.00
37322;DHT22;23697;48.684;9.032;2023-05-18T14:03:42;18.40;43.00
37322;DHT22;23697;48.684;9.032;2023-05-18T14:06:09;18.70;41.00
37322;DHT22;23697;48.684;9.032;2023-05-18T14:08:39;19.10;38.30
37322;DHT22;23697;48.684;9.032;2023-05-18T14:11:06;18.90;39.60
37322;DHT22;23697;48.684;9.032;2023-05-18T14:13:32;18.50;40.40
37322;DHT22;23697;48.684;9.032;2023-05-18T14:16:00;17.90;41.40
